• Join FlightAware (Why Join?)
  • Login
  • US Flag 
03:02PM EDT


 

Airport Tracker/Info


-or-


 

Live Flight TrackerFlight Track Log ✈ N559LC ✈ 13-Mar-2014 ✈ KDTW - KBUR

Flight Track Log - Related Links

Times and Time Zones

All times are in EDT time to prevent confusion due to time zone crossing. See the N559LC flight status page for this flight to view local times or setup timezone preferences in your user account.

Time Position Orientation Groundspeed Altitude Reporting Facility
EDT Latitude Longitude Course Direction KTS MPH feet Rate Location/Type
11:43AM 42.1944 -83.3542 226° Southwest 159 183 1,400  Level Cleveland Center
11:44AM 42.1544 -83.4106 226° Southwest 232 267 4,000 2,400 Climbing Cleveland Center
11:45AM 42.1547 -83.4603 270° West 245 282 5,600 3,240 Climbing Cleveland Center
11:45AM 42.1708 -83.4944 302° West 239 275 7,300 3,540 Climbing Cleveland Center
11:46AM 42.1892 -83.5386 299° West 242 278 9,300 2,340 Climbing Cleveland Center
11:47AM 42.2186 -83.6181 297° West 261 300 11,300 2,520 Climbing Cleveland Center
11:48AM 42.2633 -83.7436 296° West 303 349 14,500 3,000 Climbing Cleveland Center
11:49AM 42.3033 -83.8503 297° West 313 360 17,500 2,580 Climbing Cleveland Center
11:50AM 42.3425 -83.9589 296° West 320 368 19,800 2,220 Climbing Cleveland Center
11:51AM 42.3831 -84.0706 296° West 327 376 22,100 2,100 Climbing Cleveland Center
11:52AM 42.4228 -84.1878 295° West 339 390 24,200 1,920 Climbing Cleveland Center
11:53AM 42.4319 -84.3258 275° West 365 420 26,100 1,920 Climbing Cleveland Center
11:54AM 42.4358 -84.4419 273° West 376 433 27,500 1,620 Climbing Chicago Center
11:55AM 42.4381 -84.5878 271° West 386 444 28,900 1,200 Climbing Chicago Center
11:56AM 42.4411 -84.7378 272° West 397 457 30,000 480 Climbing Chicago Center
11:57AM 42.4450 -84.8811 272° West 388 447 30,000 720 Level Chicago Center
11:58AM 42.4475 -85.0261 271° West 386 444 31,600 960 Climbing Chicago Center
11:59AM 42.4511 -85.1728 272° West 389 448 32,000 600 Climbing Chicago Center
12:00PM 42.4536 -85.3239 271° West 396 456 32,900 960 Climbing Chicago Center
12:01PM 42.4569 -85.5100 271° West 407 468 34,000 480 Climbing Chicago Center
12:02PM 42.4567 -85.6644 270° West 409 471 34,000 180 Level Chicago Center
12:03PM 42.4406 -85.8192 262° West 410 472 34,400 720 Climbing Chicago Center
12:04PM 42.4242 -85.9747 262° West 416 479 35,600 840 Climbing Chicago Center
12:05PM 42.4097 -86.1308 263° West 417 480 36,200 600 Climbing Chicago Center
12:06PM 42.3922 -86.2864 261° West 417 480 36,900 720 Climbing Chicago Center
12:07PM 42.3767 -86.4428 262° West 418 481 37,700 840 Climbing Chicago Center
12:08PM 42.3575 -86.6275 262° West 411 473 38,700 780 Climbing Chicago Center
12:09PM 42.3444 -86.7642 263° West 405 466 39,400 600 Climbing Chicago Center
12:10PM 42.3294 -86.9067 262° West 390 449 40,000 240 Climbing Chicago Center
12:11PM 42.3094 -87.0756 261° West 384 442 40,000  Level Chicago Center
12:12PM 42.2933 -87.2189 261° West 388 447 40,000  Level Chicago Center
12:13PM 42.2769 -87.3656 261° West 397 457 40,000  Level Chicago Center
12:14PM 42.2608 -87.5114 262° West 398 458 40,000  Level Chicago Center
12:15PM 42.2436 -87.6586 261° West 401 461 40,000  Level Chicago Center
12:16PM 42.2233 -87.8367 261° West 403 464 40,000  Level Chicago Center
12:17PM 42.2061 -87.9867 261° West 409 471 40,000  Level Chicago Center
12:18PM 42.1892 -88.1356 261° West 408 470 40,000  Level Chicago Center
12:20PM 42.1708 -88.2817 260° West 403 464 40,000  Level Chicago Center
12:21PM 42.1492 -88.4639 261° West 409 471 40,000  Level Chicago Center
12:22PM 42.1289 -88.6206 260° West 421 484 40,000  Level Chicago Center
12:23PM 42.1111 -88.7742 261° West 421 484 40,000  Level Chicago Center
12:24PM 42.0906 -88.9319 260° West 421 484 40,000  Level Chicago Center
12:25PM 42.0711 -89.0878 261° West 422 486 40,000  Level Chicago Center
12:26PM 42.0469 -89.2731 260° West 435 501 40,000  Level Chicago Center
12:27PM 42.0272 -89.4317 261° West 431 496 40,000  Level Chicago Center
12:28PM 42.0064 -89.5894 260° West 429 494 40,000  Level Chicago Center
12:29PM 41.9853 -89.7469 260° West 428 493 40,000  Level Chicago Center
12:30PM 41.9628 -89.9206 260° West 425 489 40,000  Level Chicago Center
12:31PM 41.9433 -90.0606 259° West 431 496 40,000  Level Chicago Center
12:33PM 41.8975 -90.3967 260° West 418 481 40,000  Level Chicago Center
12:34PM 41.8772 -90.5492 260° West 418 481 40,000  Level Chicago Center
12:35PM 41.8531 -90.7072 258° West 430 495 40,000  Level Chicago Center
12:36PM 41.8303 -90.8633 259° West 431 496 40,000  Level Chicago Center
12:37PM 41.8089 -91.0153 259° West 424 488 40,000  Level Chicago Center
12:38PM 41.7822 -91.1992 259° West 421 484 40,000  Level Chicago Center
12:39PM 41.7586 -91.3544 259° West 426 490 40,000  Level Chicago Center
12:40PM 41.7353 -91.5089 259° West 425 489 40,000  Level Chicago Center
12:41PM 41.7122 -91.6611 259° West 422 486 40,000  Level Chicago Center
12:42PM 41.6878 -91.8150 258° West 423 487 40,000  Level Chicago Center
12:43PM 41.6647 -91.9689 259° West 423 487 40,000  Level Chicago Center
12:44PM 41.6369 -92.1506 258° West 418 481 40,000  Level Chicago Center
12:45PM 41.6133 -92.3014 258° West 417 480 40,000  Level Chicago Center
12:46PM 41.5894 -92.4528 258° West 418 481 40,000  Level Chicago Center
12:47PM 41.5647 -92.6050 258° West 422 486 40,000  Level Chicago Center
12:48PM 41.5411 -92.7506 258° West 420 483 40,000  Level Minneapolis Center
12:49PM 41.5169 -92.9008 258° West 420 483 40,000  Level Minneapolis Center
12:50PM 41.4922 -93.0519 258° West 420 483 40,000  Level Minneapolis Center
12:51PM 41.4672 -93.2031 258° West 420 483 40,000  Level Minneapolis Center
12:52PM 41.4408 -93.3564 257° West 422 486 40,000  Level Minneapolis Center
12:53PM 41.4097 -93.5403 257° West 427 491 40,000  Level Minneapolis Center
12:54PM 41.3842 -93.6936 258° West 427 491 40,000  Level Minneapolis Center
12:56PM 41.3572 -93.8469 257° West 428 493 40,000  Level Minneapolis Center
12:57PM 41.3325 -93.9989 258° West 427 491 40,000  Level Minneapolis Center
12:58PM 41.3042 -94.1539 256° West 428 493 40,000  Level Minneapolis Center
12:59PM 41.2719 -94.3369 257° West 428 493 40,000  Level Minneapolis Center
01:00PM 41.2447 -94.4928 257° West 428 493 40,000  Level Minneapolis Center
01:01PM 41.2164 -94.6508 257° West 433 498 40,000  Level Minneapolis Center
01:02PM 41.1883 -94.8078 257° West 435 501 40,000  Level Minneapolis Center
01:03PM 41.1594 -94.9636 256° West 435 501 40,000  Level Minneapolis Center
01:04PM 41.1306 -95.1186 256° West 435 501 40,000 300 Level Minneapolis Center
01:05PM 41.0967 -95.3006 256° West 430 495 40,700 600 Climbing Minneapolis Center
01:06PM 41.0692 -95.4467 256° West 415 478 41,300 480 Climbing Minneapolis Center
01:07PM 41.0425 -95.5869 256° West 398 458 41,700 420 Climbing Minneapolis Center
01:08PM 41.0164 -95.7250 256° West 389 448 42,200 360 Climbing Minneapolis Center
01:09PM 40.9906 -95.8611 256° West 383 441 42,500 360 Climbing Minneapolis Center
01:10PM 40.9650 -95.9947 256° West 378 435 43,000 240 Climbing Minneapolis Center
01:11PM 40.9389 -96.1289 256° West 377 434 43,000  Level Minneapolis Center
01:12PM 40.9128 -96.2636 256° West 377 434 43,000  Level Minneapolis Center
01:13PM 40.8808 -96.4269 256° West 377 434 43,000  Level Minneapolis Center
01:14PM 40.8539 -96.5647 256° West 381 438 43,000  Level Minneapolis Center
01:15PM 40.8256 -96.7025 255° West 386 444 43,000  Level Minneapolis Center
01:16PM 40.7975 -96.8417 255° West 386 444 43,000  Level Minneapolis Center
01:17PM 40.7692 -96.9803 255° West 387 445 43,000  Level Minneapolis Center
01:18PM 40.7408 -97.1211 255° West 393 452 43,000  Level Minneapolis Center
01:19PM 40.7125 -97.2631 255° West 398 458 43,000  Level Minneapolis Center
01:20PM 40.6772 -97.4267 254° West 398 458 43,000  Level Minneapolis Center
01:21PM 40.6486 -97.5700 255° West 399 459 43,000  Level Minneapolis Center
01:22PM 40.6181 -97.7139 254° West 402 463 43,000  Level Minneapolis Center
01:23PM 40.5881 -97.8581 255° West 403 464 43,000  Level Minneapolis Center
01:24PM 40.5572 -98.0025 254° West 405 466 43,000  Level Minneapolis Center
01:25PM 40.5203 -98.1750 254° West 405 466 43,000  Level Minneapolis Center
01:27PM 40.4892 -98.3186 254° West 405 466 43,000  Level Minneapolis Center
01:28PM 40.4583 -98.4622 254° West 405 466 43,000  Level Minneapolis Center
01:29PM 40.4261 -98.6061 254° West 406 467 43,000  Level Minneapolis Center
01:30PM 40.3950 -98.7508 254° West 406 467 43,000  Level Minneapolis Center
01:31PM 40.3639 -98.8936 254° West 406 467 43,000  Level Minneapolis Center
01:32PM 40.3319 -99.0356 254° West 406 467 43,000  Level Minneapolis Center
01:33PM 40.3003 -99.1772 254° West 406 467 43,000  Level Denver Center
01:34PM 40.2683 -99.3186 254° West 404 465 43,000  Level Denver Center
01:35PM 40.2297 -99.4897 254° West 404 465 43,000  Level Denver Center
01:36PM 40.1972 -99.6303 253° West 402 463 43,000  Level Denver Center
01:37PM 40.1586 -99.7992 253° West 403 464 43,000  Level Denver Center
01:38PM 40.1289 -99.9264 253° West 403 464 43,000  Level Denver Center
01:39PM 40.0928 -100.0817 253° West 401 461 43,000  Level Denver Center
01:40PM 40.0611 -100.2144 253° West 401 461 43,000  Level Denver Center
01:41PM 40.0250 -100.3708 253° West 401 461 43,000  Level Denver Center
01:42PM 39.9928 -100.5053 253° West 401 461 43,000  Level Denver Center
01:43PM 39.9553 -100.6603 253° West 402 463 43,000  Level Denver Center
01:44PM 39.9231 -100.7931 252° West 400 460 43,000  Level Denver Center
01:45PM 39.8864 -100.9444 253° West 396 456 43,000  Level Denver Center
01:46PM 39.8550 -101.0733 252° West 392 451 43,000  Level Denver Center
01:47PM 39.8194 -101.2222 253° West 390 449 43,000  Level Denver Center
01:48PM 39.7875 -101.3492 252° West 387 445 43,000  Level Denver Center
01:49PM 39.7556 -101.4775 251° West 387 445 43,000  Level Denver Center
01:50PM 39.7485 -101.5002 251° West  Level FlightAware Approximate
01:50PM 39.7189 -101.6272 252° West 387 445 43,000  Level Denver Center
01:52PM 39.6872 -101.7556 252° West 388 447 43,000  Level Denver Center
01:53PM 39.6489 -101.9053 252° West 390 449 43,000  Level Denver Center
01:54PM 39.6150 -102.0350 251° West 391 450 43,000  Level Denver Center
01:55PM 39.5731 -102.2081 253° West 392 451 43,000  Level Denver Center
01:56PM 39.5336 -102.3575 251° West 392 451 43,000  Level Denver Center
01:57PM 39.5028 -102.4769 252° West 393 452 43,000  Level Denver Center
01:58PM 39.4683 -102.6111 252° West 394 453 43,000  Level Denver Center
01:59PM 39.4253 -102.7714 251° West 394 453 43,000  Level Denver Center
02:00PM 39.3906 -102.9056 252° West 394 453 43,000  Level Denver Center
02:01PM 39.3550 -103.0392 251° West 394 453 43,000  Level Denver Center
02:02PM 39.3197 -103.1753 252° West 396 456 43,000  Level Denver Center
02:03PM 39.2836 -103.3103 251° West 396 456 43,000  Level Denver Center
02:04PM 39.2475 -103.4422 251° West 395 455 43,000  Level Denver Center
02:05PM 39.2067 -103.6003 252° West 390 449 43,000  Level Denver Center
02:06PM 39.1711 -103.7297 251° West 387 445 43,000  Level Denver Center
02:07PM 39.1350 -103.8592 250° West 386 444 43,000  Level Denver Center
02:08PM 39.0981 -103.9919 250° West 390 449 43,000  Level Denver Center
02:09PM 39.0633 -104.1236 251° West 390 449 43,000  Level Denver Center
02:10PM 39.0264 -104.2569 250° West 391 450 43,000  Level Denver Center
02:11PM 38.9819 -104.4169 250° West 395 455 43,000  Level Denver Center
02:12PM 38.9433 -104.5519 250° West 399 459 43,000  Level Denver Center
02:13PM 38.9056 -104.6856 250° West 399 459 43,000  Level Denver Center
02:14PM 38.8678 -104.8194 250° West 399 459 43,000  Level Denver Center
02:15PM 38.8306 -104.9528 250° West 397 457 43,000  Level Denver Center
02:17PM 38.7922 -105.0867 250° West 397 457 43,000  Level Denver Center
02:18PM 38.7614 -105.1928 250° West 397 457 43,000  Level Denver Center
02:19PM 38.7078 -105.3797 250° West 398 458 43,000  Level Denver Center
02:20PM 38.6686 -105.5122 249° West 398 458 43,000  Level Denver Center
02:21PM 38.6303 -105.6456 250° West 398 458 43,000  Level Denver Center
02:22PM 38.5914 -105.7767 249° West 398 458 43,000  Level Denver Center
02:23PM 38.5511 -105.9131 249° West 398 458 43,000  Level Denver Center
02:24PM 38.5067 -106.0608 249° West 399 459 43,000  Level Denver Center
02:25PM 38.4731 -106.1761 250° West 398 458 43,000  Level Denver Center
02:26PM 38.4306 -106.3175 249° West 399 459 43,000  Level Denver Center
02:27PM 38.3981 -106.4253 249° West 399 459 43,000  Level Denver Center
02:28PM 38.3447 -106.5997 249° West 400 460 43,000  Level Denver Center
02:29PM 38.2992 -106.7469 249° West 400 460 43,000  Level Denver Center
02:30PM 38.2683 -106.8511 249° West 400 460 43,000  Level Denver Center
02:31PM 38.2194 -107.0078 248° West 400 460 43,000  Level Denver Center
02:32PM 38.1786 -107.1417 249° West 399 459 43,000  Level Denver Center
02:33PM 38.1308 -107.2942 248° West 399 459 43,000  Level Denver Center
02:34PM 38.0933 -107.4197 249° West 399 459 43,000  Level Denver Center
02:35PM 38.0483 -107.5631 248° West 399 459 43,000  Level Denver Center
02:36PM 38.0089 -107.6881 248° West 398 458 43,000  Level Denver Center
02:37PM 37.9689 -107.8114 248° West 398 458 43,000  Level Denver Center
02:38PM 37.9231 -107.9567 248° West 398 458 43,000  Level Denver Center
02:39PM 37.8703 -108.1225 248° West 398 458 43,000  Level Denver Center
02:41PM 37.8306 -108.2478 248° West 398 458 43,000  Level Denver Center
02:42PM 37.7833 -108.3925 248° West 401 461 43,000  Level Denver Center
02:43PM 37.7431 -108.5181 248° West 402 463 43,000  Level Denver Center
02:44PM 37.6958 -108.6644 248° West 400 460 43,000  Level Denver Center
02:45PM 37.6556 -108.7872 248° West 400 460 43,000  Level Denver Center
02:46PM 37.6150 -108.9078 247° West 394 453 43,000  Level Denver Center
02:47PM 37.5683 -109.0503 248° West 392 451 43,000  Level Denver Center
02:48PM 37.5283 -109.1719 248° West 393 452 43,000  Level Denver Center
02:49PM 37.4814 -109.3128 247° West 393 452 43,000  Level Denver Center
02:50PM 37.4417 -109.4336 248° West 392 451 43,000  Level Denver Center
02:51PM 37.3931 -109.5747 247° West 392 451 43,000  Level Denver Center
02:52PM 37.3531 -109.6961 248° West 393 452 43,000  Level Denver Center
02:53PM 37.3053 -109.8353 247° West 392 451 43,000  Level Denver Center
02:54PM 37.2647 -109.9569 247° West 392 451 43,000  Level Denver Center
02:55PM 37.2303 -110.0564 247° West 392 451 43,000  Level Denver Center
02:56PM 37.1775 -110.2094 247° West 394 453 43,000  Level Denver Center
02:57PM 37.1256 -110.3608 247° West 393 452 43,000  Level Denver Center
02:58PM 37.0822 -110.4858 247° West 393 452 43,000  Level Denver Center
02:59PM 37.0378 -110.6131 246° West 396 456 43,000  Level Denver Center
03:00PM 36.9944 -110.7389 247° West 395 455 43,000  Level Denver Center
03:01PM 36.9503 -110.8642 246° West 396 456 43,000  Level Denver Center
03:02PM 36.9050 -110.9906 246° West 396 456 43,000  Level Denver Center
03:03PM 36.8600 -111.1156 246° West 396 456 43,000  Level Denver Center
03:04PM 36.8167 -111.2417 247° West 396 456 43,000  Level Denver Center
03:05PM 36.7633 -111.3917 246° West 395 455 43,000  Level Denver Center
03:06PM 36.7267 -111.4917 245° Southwest 395 455 43,000  Level Denver Center
03:07PM 36.6714 -111.6431 246° West 399 459 43,000  Level Los Angeles Center
03:08PM 36.6267 -111.7678 246° West 396 456 43,000  Level Los Angeles Center
03:09PM 36.5814 -111.8947 246° West 399 459 43,000  Level Los Angeles Center
03:10PM 36.5353 -112.0225 246° West 404 465 43,000  Level Los Angeles Center
03:11PM 36.4878 -112.1519 245° Southwest 408 470 43,000  Level Los Angeles Center
03:12PM 36.4403 -112.2814 246° West 410 472 43,000  Level Los Angeles Center
03:13PM 36.3828 -112.4375 245° Southwest 413 475 43,000  Level Los Angeles Center
03:14PM 36.3342 -112.5669 245° Southwest 413 475 43,000  Level Los Angeles Center
03:16PM 36.2861 -112.6964 245° Southwest 414 476 43,000  Level Los Angeles Center
03:17PM 36.2375 -112.8264 245° Southwest 415 478 43,000  Level Los Angeles Center
03:18PM 36.1889 -112.9558 245° Southwest 415 478 43,000  Level Los Angeles Center
03:19PM 36.1394 -113.0867 245° Southwest 418 481 43,000  Level Los Angeles Center
03:20PM 36.0811 -113.2422 245° Southwest 416 479 43,000  Level Los Angeles Center
03:21PM 36.0372 -113.3600 245° Southwest 415 478 43,000  Level Los Angeles Center
03:22PM 35.9878 -113.4886 245° Southwest 415 478 43,000  Level Los Angeles Center
03:23PM 35.9264 -113.6436 244° Southwest 417 480 43,000  Level Los Angeles Center
03:24PM 35.8772 -113.7725 245° Southwest 415 478 43,000  Level Los Angeles Center
03:25PM 35.8275 -113.9011 245° Southwest 416 479 43,000  Level Los Angeles Center
03:26PM 35.7775 -114.0317 245° Southwest 419 482 43,000  Level Los Angeles Center
03:27PM 35.7281 -114.1603 245° Southwest 417 480 43,000  Level Los Angeles Center
03:28PM 35.6772 -114.2903 244° Southwest 420 483 43,000 -720 Level Los Angeles Center
03:29PM 35.6275 -114.4175 244° Southwest 415 478 41,600 -1,980 Descending Los Angeles Center
03:30PM 35.5625 -114.5808 244° Southwest 438 504 39,000 -2,280 Descending Los Angeles Center
03:31PM 35.5083 -114.7197 244° Southwest 448 516 36,900 -2,100 Descending Los Angeles Center
03:32PM 35.4550 -114.8544 244° Southwest 442 509 34,700 -1,440 Descending Los Angeles Center
03:33PM 35.4008 -114.9878 244° Southwest 436 502 34,000 -660 Descending Los Angeles Center
03:34PM 35.3472 -115.1228 244° Southwest 438 504 33,400 -900 Descending Los Angeles Center
03:35PM 35.2928 -115.2575 244° Southwest 440 506 32,200 -1,260 Descending Los Angeles Center
03:36PM 35.2272 -115.4194 244° Southwest 441 507 30,800 -1,320 Descending Los Angeles Center
03:37PM 35.1728 -115.5553 244° Southwest 437 503 29,500 -1,200 Descending Los Angeles Center
03:38PM 35.1206 -115.6822 243° Southwest 422 486 28,300 -1,200 Descending Los Angeles Center
03:39PM 35.0697 -115.8064 243° Southwest 412 474 27,100 -1,200 Descending Los Angeles Center
03:40PM 35.0194 -115.9300 244° Southwest 407 468 25,900 -1,200 Descending Los Angeles Center
03:41PM 34.9683 -116.0492 242° Southwest 402 463 24,700 -960 Descending Los Angeles Center
03:42PM 34.9175 -116.1694 243° Southwest 401 461 24,000 -360 Descending Los Angeles Center
03:44PM 34.8606 -116.3106 244° Southwest 393 452 24,000 -360 Level Los Angeles Center
03:45PM 34.8122 -116.4281 243° Southwest 389 448 23,300 -1,080 Descending Los Angeles Center
03:46PM 34.7883 -116.5542 257° West 384 442 21,800 -1,500 Descending Los Angeles Center
03:47PM 34.7756 -116.6825 263° West 383 441 20,300 -900 Descending Los Angeles Center
03:48PM 34.7642 -116.8061 264° West 372 428 20,000 -180 Descending Los Angeles Center
03:49PM 34.7511 -116.9311 263° West 372 428 20,000 -660 Level Los Angeles Center
03:50PM 34.7356 -117.0786 263° West 366 421 18,700 -1,200 Descending Los Angeles Center
03:51PM 34.7228 -117.1997 263° West 361 415 17,600 -1,140 Descending Los Angeles Center
03:52PM 34.7108 -117.3239 263° West 365 420 16,400 -1,200 Descending Los Angeles Center
03:53PM 34.6972 -117.4481 262° West 369 425 15,200 -1,140 Descending Los Angeles Center
03:54PM 34.6844 -117.5725 263° West 368 423 14,100 -1,080 Descending Los Angeles Center
03:55PM 34.6708 -117.6956 262° West 365 420 13,000 -540 Descending Los Angeles Center
03:56PM 34.6569 -117.8175 262° West 363 418 13,000  Level Los Angeles Center
03:57PM 34.6419 -117.9681 263° West 371 427 13,000 -540 Level Los Angeles Center
03:58PM 34.6261 -118.0897 261° West 367 422 12,000 -1,380 Descending Los Angeles Center
03:59PM 34.5997 -118.2097 255° West 340 391 10,200 -1,620 Descending Los Angeles Center
04:00PM 34.5772 -118.3075 254° West 309 356 8,700 -1,020 Descending Los Angeles Center
04:01PM 34.5553 -118.4036 255° West 299 344 8,100 -840 Descending Los Angeles Center
04:02PM 34.5092 -118.4828 235° Southwest 291 335 7,000 -1,020 Descending Los Angeles Center
04:03PM 34.4506 -118.5508 224° Southwest 291 335 6,000 -540 Descending Los Angeles Center
04:04PM 34.3878 -118.6086 217° Southwest 244 281 6,000  Level Los Angeles Center
04:05PM 34.3217 -118.6494 207° Southwest 266 306 6,000 -780 Level Los Angeles Center
04:06PM 34.2469 -118.6525 182° South 273 314 4,500 -1,200 Descending Los Angeles Center
04:07PM 34.2000 -118.6000 137° Southeast 231 266 3,900 -840 Descending Southern California TRACON
04:08PM 34.2000 -118.5333 90° East 187 215 3,000 -660 Descending Southern California TRACON
04:09PM 34.2000 -118.4667 90° East 170 196 2,600 -660 Descending Southern California TRACON
04:10PM 34.2000 -118.4167 90° East 162 186 1,700 -720 Descending Southern California TRACON
04:11PM 34.1989 -118.3550 91° East 172 198 1,000 -540 Descending Los Angeles Center
04:13PM 34.2000 -118.3500 90° East  Level FlightAware Approximate
04:20PM 34.2007 -118.3587 90° East  Level Estimated